METAR Data
IDs: Format: Raw Decoded Include TAF

Data at: 2055 UTC 13 Nov 2019

NZAA 132030Z AUTO 31007KT 9999 -RA BKN040/// 15/14 Q1006 TEMPO 5000 SHRA
NZAA 132000Z AUTO 29014KT 9000 -RA SCT009/// BKN018/// BKN032/// 15/14 Q1006 BECMG FM2000 28012KT TEMPO 4000 RA BKN012 FEW020CB
NZAA 131930Z AUTO 36012KT 7000 -RA BKN011/// BKN017/// OVC022/// 15/15 Q1005 BECMG FM2000 28012KT TEMPO 4000 RA BKN012 FEW020CB
NZAA 131900Z AUTO 01013KT 9999 -RA BKN016/// BKN030/// 15/14 Q1005 BECMG FM 2000 28012KT TEMPO 4000 RA BKN012 FEW020CB
NZAA 131830Z AUTO 36014KT 9999 -RA FEW015/// BKN035/// OVC049/// 15/14 Q1005 BECMG FM 2000 28012KT TEMPO 3000 TSRA BKN012 FEW020CB
NZAA 131800Z AUTO 01012KT 9999 -RA FEW015/// BKN050/// OVC090/// 15/14 Q1005 RERA TEMPO 3000 TSRA BKN012 FEW020CB

TAF AMD NZAA 131740Z 1317/1418 01015G25KT 9999 -RA SCT035 BKN050
  TEMPO 1318/1322 3000 TSRA BKN012 SCT020CB
  FM132000 28012KT 9999 FEW025
  TEMPO 1409/1413 6000 SHRA FEW020TCU